Time;durP1;ratioP1;P1;durP2;ratioP2;P2;SDS_P1;SDS_P2;PMS_P1;PMS_P2;Temp;Humidity;BMP_temperature;BMP_pressure;BME280_temperature;BME280_humidity;BME280_pressure;Samples;Min_cycle;Max_cycle;Signal;HPM_P1;HPM_P2
2022/02/08 00:02:26;;;;;;;5.35;0.98;;;1.90;99.90;;;;;;4888970;29;20025;-79
2022/02/08 00:04:52;;;;;;;7.50;1.15;;;1.80;99.90;;;;;;4890057;29;20032;-79
2022/02/08 00:07:18;;;;;;;6.00;1.15;;;1.80;99.90;;;;;;4891998;29;20044;-80
2022/02/08 00:09:43;;;;;;;;;;;1.70;99.90;;;;;;4901040;29;20037;-79
2022/02/08 00:12:09;;;;;;;4.60;1.20;;;1.70;99.90;;;;;;4896129;29;19908;-79
2022/02/08 00:14:34;;;;;;;;;;;1.60;99.90;;;;;;4887729;29;20052;-79
2022/02/08 00:17:00;;;;;;;8.93;1.45;;;1.60;99.90;;;;;;4889730;29;19963;-81
2022/02/08 00:19:26;;;;;;;;;;;1.60;99.90;;;;;;4886069;29;20062;-79
2022/02/08 00:21:52;;;;;;;6.63;0.90;;;1.60;99.90;;;;;;4889468;29;19911;-80
2022/02/08 00:24:17;;;;;;;;;;;1.60;99.90;;;;;;4889785;29;20049;-80
2022/02/08 00:26:43;;;;;;;5.18;0.80;;;1.60;99.90;;;;;;4889757;29;19912;-79
2022/02/08 00:29:08;;;;;;;;;;;1.50;99.90;;;;;;4887933;29;20040;-80
2022/02/08 00:31:34;;;;;;;8.05;1.25;;;1.60;99.90;;;;;;4887965;29;19911;-81
2022/02/08 00:34:00;;;;;;;;;;;1.60;99.90;;;;;;4889132;29;20406;-79
2022/02/08 00:36:25;;;;;;;4.85;0.90;;;1.80;99.90;;;;;;4888738;29;19915;-79
2022/02/08 00:38:52;;;;;;;;;;;1.80;99.90;;;;;;4892750;29;20065;-79
2022/02/08 00:41:18;;;;;;;9.18;2.40;;;1.80;99.90;;;;;;4892426;29;19919;-78
2022/02/08 00:46:15;;;;;;;9.00;1.10;;;2.00;99.90;;;;;;4885769;29;19963;-79
2022/02/08 00:48:43;;;;;;;6.38;1.00;;;2.20;99.90;;;;;;4885888;29;20446;-78
2022/02/08 00:51:10;;;;;;;5.03;1.42;;;2.20;99.90;;;;;;4885182;29;20036;-79
2022/02/08 00:53:37;;;;;;;7.63;1.23;;;2.20;99.90;;;;;;4882514;29;20026;-80
2022/02/08 00:56:03;;;;;;;3.67;0.73;;;2.20;99.90;;;;;;4884610;29;20041;-79
2022/02/08 00:58:29;;;;;;;7.75;1.23;;;2.20;99.90;;;;;;4864856;29;20124;-77
2022/02/08 01:00:54;;;;;;;;;;;2.10;99.90;;;;;;4880576;29;20059;-78
2022/02/08 01:03:20;;;;;;;5.95;1.58;;;2.10;99.90;;;;;;4881926;29;19911;-77
2022/02/08 01:05:51;;;;;;;5.57;1.13;;;2.10;99.90;;;;;;4880261;29;20505;-80
2022/02/08 01:08:19;;;;;;;6.47;1.30;;;2.10;99.90;;;;;;4881466;29;20458;-78
2022/02/08 01:10:45;;;;;;;5.07;1.00;;;2.10;99.90;;;;;;4888725;29;20040;-79
2022/02/08 01:13:11;;;;;;;;;;;2.10;99.90;;;;;;4886454;29;20033;-78
2022/02/08 01:15:37;;;;;;;5.28;1.27;;;2.00;99.90;;;;;;4879764;29;19912;-78
2022/02/08 01:18:03;;;;;;;;;;;1.90;99.90;;;;;;4880072;29;20040;-79
2022/02/08 01:20:35;;;;;;;3.78;0.80;;;2.00;99.90;;;;;;4878499;29;19916;-78
2022/02/08 01:23:04;;;;;;;12.73;1.13;;;2.00;99.90;;;;;;4879539;29;20039;-79
2022/02/08 01:25:35;;;;;;;6.22;1.48;;;2.00;99.90;;;;;;4880291;29;20056;-78
2022/02/08 01:28:13;;;;;;;7.35;1.05;;;2.00;99.90;;;;;;4880156;29;20406;-79
2022/02/08 01:31:00;;;;;;;7.57;1.23;;;1.90;99.90;;;;;;4880432;29;20025;-77
2022/02/08 01:41:55;;;;;;;6.90;1.00;;;1.40;99.90;;;;;;4861588;29;20086;-78
2022/02/08 01:44:35;;;;;;;6.45;0.70;;;1.40;99.90;;;;;;4862093;29;20045;-78
2022/02/08 01:51:53;;;;;;;7.85;1.00;;;1.30;99.90;;;;;;4862184;29;20377;-78
2022/02/08 01:54:19;;;;;;;7.55;0.93;;;1.20;99.90;;;;;;4863106;29;20037;-79
2022/02/08 01:56:45;;;;;;;;;;;1.20;99.90;;;;;;4862458;29;20029;-80
2022/02/08 01:59:11;;;;;;;4.03;0.85;;;1.10;99.90;;;;;;4863329;29;19923;-78
2022/02/08 02:01:36;;;;;;;;;;;1.00;99.90;;;;;;4873050;29;20036;-81
2022/02/08 02:04:03;;;;;;;7.57;1.10;;;0.90;99.90;;;;;;4877961;29;19940;-80
2022/02/08 02:06:28;;;;;;;7.55;0.93;;;0.90;99.90;;;;;;4878252;29;20029;-80
2022/02/08 02:08:54;;;;;;;;;;;0.80;99.90;;;;;;4873862;29;20029;-78
2022/02/08 02:11:20;;;;;;;7.28;1.25;;;0.70;99.90;;;;;;4862127;29;19980;-79
2022/02/08 02:13:48;;;;;;;;;;;0.80;99.90;;;;;;4862824;29;20029;-78
2022/02/08 02:16:58;;;;;;;9.25;1.20;;;0.60;99.90;;;;;;4860985;29;19919;-78
2022/02/08 02:19:03;;;;;;;15.10;1.33;;;0.60;99.90;;;;;;4858417;29;20042;-77
2022/02/08 02:21:29;;;;;;;;;;;0.50;99.90;;;;;;4860166;29;20095;-78
2022/02/08 02:23:55;;;;;;;14.77;1.35;;;0.50;99.90;;;;;;4859296;29;19920;-79
2022/02/08 02:26:21;;;;;;;6.53;1.20;;;0.50;99.90;;;;;;4863382;29;20057;-79
2022/02/08 02:28:46;;;;;;;;;;;0.50;99.90;;;;;;4865580;29;20074;-79
2022/02/08 02:31:12;;;;;;;8.32;1.30;;;0.50;99.90;;;;;;4866096;29;19908;-78
2022/02/08 02:33:37;;;;;;;;;;;0.40;99.90;;;;;;4866371;29;20543;-79
2022/02/08 02:36:03;;;;;;;11.38;1.38;;;0.40;99.90;;;;;;4867708;29;19912;-80
2022/02/08 02:38:29;;;;;;;;;;;0.40;99.90;;;;;;4887275;29;20060;-80
2022/02/08 02:40:55;;;;;;;8.02;1.05;;;0.40;99.90;;;;;;4900128;29;19939;-79
2022/02/08 02:43:21;;;;;;;;;;;0.30;99.90;;;;;;4889364;29;20025;-78
2022/02/08 02:45:47;;;;;;;4.72;1.20;;;0.20;99.90;;;;;;4887508;29;19946;-80
2022/02/08 02:48:14;;;;;;;7.57;1.17;;;0.20;99.90;;;;;;4895106;29;20033;-80
2022/02/08 02:50:40;;;;;;;8.98;1.02;;;0.20;99.90;;;;;;4889345;29;20029;-79
2022/02/08 02:53:06;;;;;;;7.13;1.38;;;0.10;99.90;;;;;;4884347;29;20025;-79
2022/02/08 02:55:33;;;;;;;;;;;0.10;99.90;;;;;;4884088;29;20070;-78
2022/02/08 02:58:00;;;;;;;;;;;0.00;99.90;;;;;;4883816;29;19920;-79
2022/02/08 03:00:43;;;;;;;7.55;1.30;;;0.00;99.90;;;;;;4884538;29;19914;-80
2022/02/08 03:03:42;;;;;;;13.73;2.30;;;-0.10;99.90;;;;;;4882763;29;20029;-79
2022/02/08 03:17:26;;;;;;;14.13;3.05;;;-0.20;99.90;;;;;;4884540;29;20048;-79
2022/02/08 03:19:42;;;;;;;14.68;2.30;;;-0.30;99.90;;;;;;4883112;29;20086;-79
2022/02/08 03:22:07;;;;;;;;;;;-0.30;99.90;;;;;;4884524;29;20025;-80
2022/02/08 03:24:33;;;;;;;9.48;1.70;;;-0.30;99.90;;;;;;4883974;29;19912;-80
2022/02/08 03:26:59;;;;;;;;;;;-0.30;99.90;;;;;;4884817;29;20057;-79
2022/02/08 03:29:24;;;;;;;7.05;1.10;;;-0.30;99.90;;;;;;4884429;29;19911;-79
2022/02/08 03:31:50;;;;;;;;;;;-0.30;99.90;;;;;;4886029;29;20069;-79
2022/02/08 03:34:16;;;;;;;10.77;1.67;;;-0.30;99.90;;;;;;4884515;29;19918;-80
2022/02/08 03:36:41;;;;;;;;;;;-0.20;99.90;;;;;;4886609;29;20061;-80
2022/02/08 03:39:24;;;;;;;15.30;2.13;;;-0.20;99.90;;;;;;4887288;29;19915;-79
2022/02/08 03:41:54;;;;;;;10.13;1.50;;;-0.20;99.90;;;;;;4886741;29;20037;-79
2022/02/08 03:44:30;;;;;;;9.95;1.27;;;-0.20;99.90;;;;;;4887925;29;20062;-80
2022/02/08 03:46:56;;;;;;;9.35;1.23;;;-0.10;99.90;;;;;;4889368;29;20047;-80
2022/02/08 03:49:22;;;;;;;;;;;0.00;99.90;;;;;;4888777;29;20075;-78
2022/02/08 03:51:53;;;;;;;17.08;1.30;;;0.00;99.90;;;;;;4889169;29;20424;-80
2022/02/08 03:54:20;;;;;;;13.85;1.50;;;0.00;99.90;;;;;;4890531;29;20052;-80
2022/02/08 03:56:46;;;;;;;6.57;1.23;;;0.00;99.90;;;;;;4891016;29;20065;-80
2022/02/08 03:59:13;;;;;;;8.75;1.33;;;0.10;99.90;;;;;;4891315;29;20045;-79
2022/02/08 04:07:00;;;;;;;11.57;1.70;;;0.20;99.90;;;;;;4867170;29;20025;-79
2022/02/08 04:09:26;;;;;;;7.90;1.50;;;0.20;99.90;;;;;;4896395;29;20081;-78
2022/02/08 04:12:02;;;;;;;;;;;0.10;99.90;;;;;;4888057;29;20510;-79
2022/02/08 04:14:40;;;;;;;16.42;4.00;;;0.10;99.90;;;;;;4889688;29;19914;-80
2022/02/08 04:17:26;;;;;;;19.48;4.97;;;0.10;99.90;;;;;;4892282;29;20062;-79
2022/02/08 04:41:36;;;;;;;16.08;5.28;;;-0.60;99.90;;;;;;4891145;29;20029;-80
2022/02/08 04:44:32;;;;;;;15.70;5.82;;;-0.70;99.90;;;;;;4890961;29;20055;-79
2022/02/08 04:47:14;;;;;;;14.77;5.15;;;-0.70;99.90;;;;;;4889932;29;20058;-79
2022/02/08 04:49:39;;;;;;;16.77;4.35;;;-0.80;99.90;;;;;;4890392;29;20057;-79
2022/02/08 04:52:08;;;;;;;;;;;-0.90;99.90;;;;;;4889928;29;20038;-79
2022/02/08 04:57:23;;;;;;;12.48;2.80;;;-0.90;99.90;;;;;;4893135;29;20069;-80
2022/02/08 05:27:42;;;;;;;11.35;2.13;;;-0.50;99.90;;;;;;4900359;29;20047;-80
2022/02/08 05:44:57;;;;;;;;;;;-0.40;99.90;;;;;;4893181;29;20033;-80
2022/02/08 05:47:24;;;;;;;19.15;8.77;;;-0.50;99.90;;;;;;4892214;29;19907;-80
2022/02/08 05:50:02;;;;;;;13.60;4.68;;;-0.50;99.90;;;;;;4893288;29;20025;-81
2022/02/08 05:54:54;;;;;;;;;;;-0.60;99.90;;;;;;4892540;29;20092;-79
2022/02/08 05:57:20;;;;;;;18.80;6.80;;;-0.60;99.90;;;;;;4891503;29;19915;-79
2022/02/08 05:59:45;;;;;;;;;;;-0.70;99.90;;;;;;4892744;29;20044;-79
2022/02/08 06:02:11;;;;;;;17.23;7.75;;;-0.60;99.90;;;;;;4891835;29;19998;-80
2022/02/08 06:04:38;;;;;;;;;;;-0.60;99.90;;;;;;4893536;29;20052;-80
2022/02/08 06:07:05;;;;;;;18.45;4.57;;;-0.60;99.90;;;;;;4892358;29;19907;-80
2022/02/08 06:09:31;;;;;;;13.18;3.95;;;-0.60;99.90;;;;;;4892580;29;20056;-81
2022/02/08 06:11:56;;;;;;;;;;;-0.60;99.90;;;;;;4893780;29;20025;-80
2022/02/08 06:14:25;;;;;;;7.88;1.77;;;-0.50;99.90;;;;;;4889627;29;19912;-80
2022/02/08 06:16:52;;;;;;;11.98;1.77;;;-0.50;99.90;;;;;;4890016;29;20123;-79
2022/02/08 06:19:18;;;;;;;19.30;3.30;;;-0.50;99.90;;;;;;4890818;29;20128;-81
2022/02/08 06:21:43;;;;;;;;;;;-0.50;99.90;;;;;;4893359;29;20422;-79
2022/02/08 06:24:09;;;;;;;19.77;5.40;;;-0.40;99.90;;;;;;4891862;29;19919;-80
2022/02/08 06:26:34;;;;;;;;;;;-0.40;99.90;;;;;;4892668;29;20037;-80
2022/02/08 06:29:07;;;;;;;35.63;16.88;;;-0.40;99.90;;;;;;4890552;29;20354;-79
2022/02/08 06:31:33;;;;;;;34.83;17.02;;;-0.40;99.90;;;;;;4893573;29;20025;-79
2022/02/08 06:33:58;;;;;;;;;;;-0.30;99.90;;;;;;4891813;29;20033;-79
2022/02/08 06:36:24;;;;;;;19.17;7.88;;;-0.20;99.90;;;;;;4891901;29;19907;-80
2022/02/08 06:38:50;;;;;;;;;;;-0.20;99.90;;;;;;4890692;29;20041;-79
2022/02/08 06:41:17;;;;;;;13.30;3.47;;;-0.20;99.90;;;;;;4891725;29;19915;-79
2022/02/08 06:43:42;;;;;;;17.30;3.45;;;-0.10;99.90;;;;;;4889750;29;20071;-79
2022/02/08 06:46:08;;;;;;;;;;;0.00;99.90;;;;;;4891169;29;20029;-80
2022/02/08 06:48:34;;;;;;;12.07;3.80;;;0.20;99.90;;;;;;4890874;29;19967;-78
2022/02/08 06:50:59;;;;;;;;;;;0.50;99.90;;;;;;4892236;29;20032;-80
2022/02/08 06:53:26;;;;;;;32.72;6.15;;;1.10;99.90;;;;;;4893595;29;19918;-79
2022/02/08 06:55:51;;;;;;;18.15;3.85;;;1.90;99.90;;;;;;4895371;29;20013;-80
2022/02/08 06:58:19;;;;;;;;;;;2.80;99.90;;;;;;4893780;29;20072;-79
2022/02/08 07:00:47;;;;;;;11.57;2.28;;;3.80;99.90;;;;;;4894008;29;19907;-79
2022/02/08 07:03:15;;;;;;;12.10;2.72;;;4.50;99.90;;;;;;4894887;29;20028;-80
2022/02/08 07:05:42;;;;;;;15.80;1.80;;;5.20;98.70;;;;;;4884391;29;20062;-80
2022/02/08 07:08:09;;;;;;;15.35;2.78;;;5.90;91.80;;;;;;4898694;29;20021;-80
2022/02/08 07:10:35;;;;;;;12.10;2.17;;;6.50;84.10;;;;;;4897195;29;20037;-80
2022/02/08 07:13:02;;;;;;;11.18;2.13;;;6.90;80.00;;;;;;4880940;29;20009;-79
2022/02/08 07:15:28;;;;;;;11.15;2.25;;;7.20;74.70;;;;;;4896836;29;20048;-81
2022/02/08 07:17:53;;;;;;;;;;;7.40;72.80;;;;;;4898172;29;20020;-79
2022/02/08 07:20:19;;;;;;;16.45;2.25;;;7.50;70.60;;;;;;4899864;29;19911;-80
2022/02/08 07:22:45;;;;;;;8.32;1.52;;;7.50;69.40;;;;;;4899873;29;20052;-80
2022/02/08 07:25:11;;;;;;;;;;;7.60;69.50;;;;;;4899350;29;20065;-80
2022/02/08 07:27:38;;;;;;;8.48;1.40;;;7.70;67.20;;;;;;4900546;29;19915;-80
2022/02/08 07:30:10;;;;;;;9.27;1.83;;;7.90;66.80;;;;;;4897706;29;20029;-80
2022/02/08 07:32:38;;;;;;;9.20;1.55;;;7.70;67.30;;;;;;4899035;29;20018;-80
2022/02/08 07:42:58;;;;;;;10.55;1.70;;;8.00;63.90;;;;;;4897378;29;20021;-80
2022/02/08 07:45:24;;;;;;;11.93;1.98;;;8.20;62.60;;;;;;4898333;29;20089;-80
2022/02/08 07:47:51;;;;;;;;;;;8.40;61.60;;;;;;4895974;29;20036;-79
2022/02/08 07:50:19;;;;;;;9.30;1.40;;;8.40;60.60;;;;;;4895592;29;19907;-78
2022/02/08 07:52:45;;;;;;;6.47;1.50;;;8.30;60.40;;;;;;4897997;29;20086;-79
2022/02/08 07:55:10;;;;;;;;;;;8.20;61.00;;;;;;4898699;29;20037;-80
2022/02/08 07:57:36;;;;;;;6.45;1.27;;;8.10;60.60;;;;;;4897758;29;19987;-79
2022/02/08 08:00:01;;;;;;;;;;;7.90;60.80;;;;;;4897924;29;20016;-80
2022/02/08 08:02:27;;;;;;;8.70;1.25;;;7.80;61.80;;;;;;4903212;29;19924;-80
2022/02/08 08:04:53;;;;;;;;;;;7.70;62.10;;;;;;4900923;29;20048;-80
2022/02/08 08:07:18;;;;;;;9.73;1.20;;;7.70;62.00;;;;;;4897063;29;19908;-80
2022/02/08 08:09:44;;;;;;;8.23;1.30;;;7.80;61.50;;;;;;4895403;29;20048;-79
2022/02/08 08:12:12;;;;;;;;;;;8.00;61.00;;;;;;4895146;29;20029;-79
2022/02/08 08:14:39;;;;;;;6.43;1.00;;;8.20;60.20;;;;;;4895763;29;19947;-80
2022/02/08 08:19:39;;;;;;;6.45;1.23;;;8.40;58.30;;;;;;4895368;29;20040;-80
2022/02/08 08:22:07;;;;;;;9.25;1.33;;;8.50;57.40;;;;;;4892932;29;20494;-79
2022/02/08 08:24:33;;;;;;;6.57;1.60;;;8.50;57.70;;;;;;4877779;29;20033;-80
2022/02/08 08:26:59;;;;;;;5.35;1.55;;;8.60;57.20;;;;;;4891110;29;20044;-80
2022/02/08 08:29:25;;;;;;;;;;;8.80;55.70;;;;;;4891141;29;20073;-80
2022/02/08 08:31:51;;;;;;;5.70;1.35;;;9.20;54.70;;;;;;4892169;29;19908;-83
2022/02/08 08:34:16;;;;;;;4.72;1.33;;;9.40;53.40;;;;;;4897764;29;20513;-79
2022/02/08 08:36:43;;;;;;;;;;;9.40;53.30;;;;;;4884222;29;20057;-82
2022/02/08 08:39:10;;;;;;;11.98;1.60;;;9.60;53.10;;;;;;4878412;29;19915;-81
2022/02/08 08:52:34;;;;;;;4.05;1.45;;;11.00;49.20;;;;;;4877894;29;20036;-81
2022/02/08 08:55:01;;;;;;;9.73;1.70;;;11.30;48.30;;;;;;4877501;29;20025;-83
2022/02/08 08:57:28;;;;;;;6.75;1.50;;;11.70;47.50;;;;;;4877708;29;20029;-82
2022/02/08 08:59:54;;;;;;;5.68;2.05;;;12.00;46.00;;;;;;4876672;29;20116;-80
2022/02/08 09:02:19;;;;;;;;;;;12.40;44.60;;;;;;4860221;29;20124;-82
2022/02/08 09:04:47;;;;;;;9.35;4.28;;;12.70;43.40;;;;;;4876621;29;19959;-84
2022/02/08 09:07:13;;;;;;;12.80;4.35;;;12.80;42.40;;;;;;4876443;29;20033;-83
2022/02/08 09:09:42;;;;;;;;;;;12.60;43.10;;;;;;4861342;29;20204;-81
2022/02/08 09:12:39;;;;;;;7.97;2.75;;;12.70;42.40;;;;;;4877379;29;19954;-82
2022/02/08 09:18:10;;;;;;;7.38;1.60;;;12.70;42.10;;;;;;4877188;29;20080;-83
2022/02/08 09:30:40;;;;;;;8.15;1.75;;;13.50;40.80;;;;;;4877237;29;20487;-83
2022/02/08 09:33:06;;;;;;;5.55;1.00;;;13.80;39.80;;;;;;4875898;29;20040;-83
2022/02/08 09:35:31;;;;;;;;;;;13.80;39.00;;;;;;4875930;29;20029;-82
2022/02/08 09:37:57;;;;;;;6.68;1.25;;;13.30;39.50;;;;;;4875323;29;19919;-84
2022/02/08 09:40:23;;;;;;;8.00;0.95;;;13.30;40.10;;;;;;4876598;29;20470;-84
2022/02/08 09:42:53;;;;;;;9.68;1.10;;;13.30;40.00;;;;;;4876624;29;20033;-84
2022/02/08 09:45:20;;;;;;;7.32;1.52;;;13.40;39.80;;;;;;4876588;29;20028;-84
2022/02/08 09:47:55;;;;;;;5.15;1.05;;;13.20;39.80;;;;;;4876644;29;20032;-83
2022/02/08 09:50:27;;;;;;;7.10;1.40;;;13.10;40.80;;;;;;4876596;29;20021;-83
2022/02/08 09:52:59;;;;;;;12.00;2.38;;;12.30;40.70;;;;;;4876945;29;20425;-83
2022/02/08 09:55:37;;;;;;;11.60;3.40;;;11.80;42.60;;;;;;4876738;29;20021;-84
2022/02/08 09:58:05;;;;;;;19.90;5.78;;;11.50;43.10;;;;;;4876895;29;20116;-84
2022/02/08 10:00:33;;;;;;;12.75;3.15;;;10.80;43.70;;;;;;4887488;29;20029;-80
2022/02/08 10:03:10;;;;;;;6.90;2.08;;;10.30;44.80;;;;;;4893615;29;20029;-79
2022/02/08 10:05:41;;;;;;;8.05;2.50;;;9.70;46.50;;;;;;4891998;29;20032;-80
2022/02/08 10:08:07;;;;;;;16.63;4.25;;;9.40;47.40;;;;;;4889349;29;20029;-79
2022/02/08 10:10:33;;;;;;;9.55;2.28;;;9.10;48.60;;;;;;4891164;29;20025;-80
2022/02/08 10:13:13;;;;;;;;;;;8.80;49.20;;;;;;4890290;29;20111;-80
2022/02/08 10:24:07;;;;;;;12.60;2.67;;;8.40;51.70;;;;;;4890248;29;20025;-79
2022/02/08 10:29:26;;;;;;;10.75;1.73;;;8.50;51.10;;;;;;4888641;29;20040;-79
2022/02/08 10:37:38;;;;;;;9.02;2.22;;;8.70;50.60;;;;;;4894082;29;20059;-80
2022/02/08 10:40:18;;;;;;;9.02;1.73;;;8.50;50.50;;;;;;4898597;29;20081;-79
2022/02/08 10:43:01;;;;;;;7.40;2.75;;;8.60;50.80;;;;;;4895156;29;20029;-80
2022/02/08 10:45:32;;;;;;;6.93;1.80;;;8.40;51.10;;;;;;4892353;29;20025;-79
2022/02/08 10:48:01;;;;;;;10.23;1.90;;;8.30;51.10;;;;;;4891124;29;20092;-79
2022/02/08 10:50:29;;;;;;;7.03;1.58;;;8.20;51.50;;;;;;4892376;29;20054;-79
2022/02/08 10:52:57;;;;;;;10.52;2.63;;;8.10;51.20;;;;;;4892362;29;20191;-79
2022/02/08 10:58:10;;;;;;;13.63;2.97;;;7.90;51.90;;;;;;4893035;29;20048;-80
2022/02/08 11:03:05;;;;;;;13.43;1.85;;;7.90;52.50;;;;;;4891635;29;19908;-80
2022/02/08 11:11:38;;;;;;;9.15;2.30;;;7.70;53.20;;;;;;4893700;29;20458;-79
2022/02/08 11:13:46;;;;;;;9.13;0.98;;;7.70;52.80;;;;;;4885937;29;20088;-80
2022/02/08 11:17:27;;;;;;;4.60;1.10;;;7.70;53.00;;;;;;4893488;29;20025;-80
2022/02/08 11:21:44;;;;;;;6.63;1.13;;;7.70;52.10;;;;;;4894192;29;20025;-79
2022/02/08 11:27:20;;;;;;;7.47;1.13;;;7.60;52.40;;;;;;4875485;29;20041;-79
2022/02/08 11:29:50;;;;;;;7.90;1.13;;;7.70;52.70;;;;;;4900806;29;20100;-79
2022/02/08 11:32:41;;;;;;;5.25;1.05;;;7.80;52.40;;;;;;4881243;29;20048;-80
2022/02/08 11:51:48;;;;;;;10.75;1.30;;;7.20;54.10;;;;;;4894557;29;20028;-80
2022/02/08 11:57:14;;;;;;;6.22;1.55;;;7.30;54.70;;;;;;4892855;29;20025;-80
2022/02/08 12:00:06;;;;;;;8.10;1.20;;;7.20;54.90;;;;;;4892898;29;20611;-79
2022/02/08 12:07:48;;;;;;;10.38;1.33;;;7.60;55.10;;;;;;4892700;29;20124;-79
2022/02/08 12:10:55;;;;;;;8.18;1.70;;;7.70;54.50;;;;;;4891324;29;20131;-80
2022/02/08 12:13:24;;;;;;;7.32;1.25;;;7.70;54.20;;;;;;4889786;29;20701;-80
2022/02/08 12:32:18;;;;;;;9.68;2.13;;;8.30;51.90;;;;;;4896014;29;20055;-80
2022/02/08 13:05:10;;;;;;;12.93;6.82;;;8.40;54.60;;;;;;4895420;29;20033;-79
2022/02/08 14:11:55;;;;;;;53.00;23.75;;;7.30;69.00;;;;;;4836306;29;20110;-78
2022/02/08 14:17:26;;;;;;;74.82;34.10;;;7.30;70.30;;;;;;4893059;29;20040;-79
2022/02/08 14:30:21;;;;;;;27.90;11.52;;;7.40;69.10;;;;;;4883139;29;20043;-80
2022/02/08 14:57:40;;;;;;;8.35;2.80;;;7.10;70.20;;;;;;4893951;29;20048;-80
2022/02/08 15:10:55;;;;;;;13.43;2.03;;;6.70;79.30;;;;;;4883736;29;20025;-80
2022/02/08 15:13:24;;;;;;;13.05;2.47;;;6.70;81.40;;;;;;4884975;29;20029;-79
2022/02/08 15:16:12;;;;;;;7.57;1.73;;;6.70;84.70;;;;;;4881600;29;20029;-79
2022/02/08 15:18:40;;;;;;;12.02;2.20;;;6.60;86.30;;;;;;4883504;29;20430;-79
2022/02/08 15:21:11;;;;;;;9.35;1.55;;;6.60;88.00;;;;;;4885249;29;20033;-79
2022/02/08 15:23:39;;;;;;;8.88;2.05;;;6.40;89.00;;;;;;4884524;29;20025;-79
2022/02/08 15:26:06;;;;;;;11.23;2.00;;;6.40;90.30;;;;;;4892111;29;20240;-78
2022/02/08 15:28:32;;;;;;;11.07;2.13;;;6.40;90.50;;;;;;4890501;29;20025;-79
2022/02/08 15:30:58;;;;;;;;;;;6.40;90.70;;;;;;4896996;29;20041;-80
2022/02/08 15:33:25;;;;;;;8.82;2.17;;;6.30;91.00;;;;;;4896459;29;19891;-79
2022/02/08 15:35:53;;;;;;;8.07;2.08;;;6.30;91.40;;;;;;4896153;29;20035;-80
2022/02/08 15:38:19;;;;;;;10.45;2.60;;;6.20;91.40;;;;;;4894645;29;20083;-79
2022/02/08 15:40:45;;;;;;;;;;;6.20;91.50;;;;;;4892567;29;20044;-79
2022/02/08 15:43:13;;;;;;;13.10;2.40;;;6.20;91.90;;;;;;4898699;29;19914;-78
2022/02/08 15:45:51;;;;;;;8.60;1.98;;;6.20;92.20;;;;;;4885910;29;20033;-80
2022/02/08 15:48:21;;;;;;;5.18;1.25;;;6.00;92.70;;;;;;4907287;29;20029;-80
2022/02/08 15:50:57;;;;;;;10.85;1.35;;;6.00;91.70;;;;;;4906152;29;20121;-80
2022/02/08 16:00:03;;;;;;;10.73;1.70;;;5.90;92.30;;;;;;4916479;29;20130;-79
2022/02/08 16:01:15;;;;;;;6.30;1.37;;;6.00;92.20;;;;;;4908887;29;20116;-79
2022/02/08 16:09:31;;;;;;;12.55;1.73;;;5.90;92.40;;;;;;4910734;29;20115;-79
2022/02/08 16:20:30;;;;;;;16.02;2.97;;;5.90;93.30;;;;;;4903375;29;20047;-78
2022/02/08 16:24:57;;;;;;;15.55;3.88;;;5.90;94.10;;;;;;4906394;29;20048;-79
2022/02/08 16:46:13;;;;;;;13.65;3.65;;;5.80;97.90;;;;;;4898506;29;20058;-80
2022/02/08 16:59:30;;;;;;;18.00;5.53;;;5.70;98.90;;;;;;4903264;29;20040;-79
2022/02/08 17:01:59;;;;;;;14.10;4.68;;;5.80;98.40;;;;;;4898849;29;20048;-79
2022/02/08 17:04:25;;;;;;;17.58;5.80;;;5.70;99.00;;;;;;4905930;29;20033;-79
2022/02/08 17:06:50;;;;;;;16.48;4.68;;;5.70;99.20;;;;;;4911570;29;20072;-80
2022/02/08 17:09:23;;;;;;;;;;;5.70;98.80;;;;;;4900110;29;20126;-79
2022/02/08 17:11:58;;;;;;;18.10;5.55;;;5.70;98.80;;;;;;4880265;29;19907;-78
2022/02/08 17:14:33;;;;;;;13.80;6.22;;;5.70;98.80;;;;;;4895066;29;20107;-78
2022/02/08 17:46:24;;;;;;;9.75;3.67;;;5.60;99.90;;;;;;4907914;29;20040;-80
2022/02/08 17:48:50;;;;;;;13.05;3.20;;;5.60;99.90;;;;;;4903588;29;20116;-79
2022/02/08 17:51:16;;;;;;;10.52;3.75;;;5.70;99.90;;;;;;4894200;29;20056;-80
2022/02/08 17:53:42;;;;;;;9.18;3.63;;;5.60;99.90;;;;;;4910943;29;20047;-80
2022/02/08 17:56:08;;;;;;;8.68;2.58;;;5.60;99.90;;;;;;4907984;29;20033;-81
2022/02/08 17:58:36;;;;;;;7.07;2.42;;;5.60;99.90;;;;;;4901765;29;20064;-78
2022/02/08 18:01:02;;;;;;;9.25;2.55;;;5.60;99.90;;;;;;4901102;29;20048;-80
2022/02/08 18:03:27;;;;;;;9.07;2.03;;;5.60;99.90;;;;;;4896735;29;20103;-79
2022/02/08 18:05:53;;;;;;;10.70;2.58;;;5.50;99.90;;;;;;4901651;29;20548;-79
2022/02/08 18:08:21;;;;;;;8.38;2.17;;;5.60;99.90;;;;;;4904131;29;20045;-80
2022/02/08 18:10:55;;;;;;;6.80;2.22;;;5.50;99.90;;;;;;4903652;29;20077;-80
2022/02/08 18:13:22;;;;;;;6.35;1.75;;;5.60;99.90;;;;;;4903350;29;20036;-79
2022/02/08 18:15:48;;;;;;;7.32;1.95;;;5.60;99.90;;;;;;4905581;29;20084;-80
2022/02/08 18:18:26;;;;;;;15.57;3.05;;;5.60;99.90;;;;;;4907926;29;20029;-81
2022/02/08 18:21:00;;;;;;;11.38;2.70;;;5.60;99.90;;;;;;4907547;29;20056;-80
2022/02/08 18:28:58;;;;;;;11.60;2.17;;;5.70;99.90;;;;;;4896333;29;20079;-78
2022/02/08 19:20:22;;;;;;;9.57;2.08;;;5.70;99.90;;;;;;4894896;29;20053;-77
2022/02/08 19:22:48;;;;;;;7.45;2.10;;;5.80;99.90;;;;;;4898837;29;20025;-79
2022/02/08 19:25:13;;;;;;;9.15;1.65;;;5.80;99.90;;;;;;4896540;29;20037;-78
2022/02/08 19:27:42;;;;;;;4.55;1.92;;;5.90;99.90;;;;;;4877150;29;20127;-80
2022/02/08 19:30:10;;;;;;;3.92;1.25;;;5.80;99.90;;;;;;4908423;29;20206;-80
2022/02/08 19:32:41;;;;;;;5.68;1.50;;;5.80;99.90;;;;;;4897982;29;20045;-78
2022/02/08 19:35:08;;;;;;;7.78;1.55;;;5.80;99.90;;;;;;4901943;29;20490;-80
2022/02/08 19:37:35;;;;;;;5.63;1.50;;;5.80;99.90;;;;;;4901583;29;20055;-80
2022/02/08 19:40:01;;;;;;;6.90;1.63;;;5.80;99.90;;;;;;4901731;29;20519;-80
2022/02/08 19:42:27;;;;;;;8.40;2.22;;;5.80;99.90;;;;;;4884413;29;20033;-80
2022/02/08 19:44:56;;;;;;;;;;;5.70;99.90;;;;;;4902566;29;20068;-80
2022/02/08 19:47:25;;;;;;;3.90;1.23;;;5.70;99.90;;;;;;4886079;29;19963;-80
2022/02/08 19:49:52;;;;;;;5.63;1.13;;;5.80;99.90;;;;;;4899661;29;20464;-78
2022/02/08 19:52:21;;;;;;;8.63;1.58;;;5.80;99.90;;;;;;4880096;29;20035;-78
2022/02/08 19:57:31;;;;;;;8.30;1.50;;;5.80;99.90;;;;;;4901849;29;20048;-80
2022/02/08 19:59:58;;;;;;;7.72;1.25;;;5.70;99.90;;;;;;4887993;29;20489;-80
2022/02/08 20:02:27;;;;;;;6.35;1.08;;;5.70;99.90;;;;;;4904173;29;20032;-80
2022/02/08 20:04:53;;;;;;;5.03;1.40;;;5.70;99.90;;;;;;4889839;29;20075;-79
2022/02/08 20:07:18;;;;;;;7.85;1.73;;;5.60;99.90;;;;;;4902371;29;20103;-79
2022/02/08 20:09:44;;;;;;;;;;;5.60;99.90;;;;;;4885343;29;20037;-79
2022/02/08 20:12:10;;;;;;;8.23;1.30;;;5.60;99.90;;;;;;4883081;29;19924;-80
2022/02/08 20:14:35;;;;;;;;;;;5.60;99.90;;;;;;4899964;29;20036;-79
2022/02/08 20:17:02;;;;;;;3.40;1.02;;;5.70;99.90;;;;;;4881280;29;19921;-78
2022/02/08 20:19:28;;;;;;;5.65;1.27;;;5.70;99.90;;;;;;4898048;29;20132;-80
2022/02/08 20:22:01;;;;;;;8.30;1.65;;;5.70;99.90;;;;;;4899480;29;20025;-78
2022/02/08 20:24:27;;;;;;;6.00;1.63;;;5.70;99.90;;;;;;4882273;29;20043;-79
2022/02/08 20:29:53;;;;;;;6.07;1.90;;;5.70;99.90;;;;;;4884772;29;20514;-79
2022/02/08 20:32:19;;;;;;;6.00;1.75;;;5.70;99.90;;;;;;4884800;29;20071;-78
2022/02/08 20:34:45;;;;;;;5.20;1.30;;;5.80;99.90;;;;;;4882477;29;20486;-78
2022/02/08 20:37:13;;;;;;;;;;;5.80;99.90;;;;;;4897517;29;20044;-80
2022/02/08 20:39:38;;;;;;;6.85;1.67;;;5.80;99.90;;;;;;4900138;29;19933;-79
2022/02/08 20:42:05;;;;;;;8.40;1.52;;;5.70;99.90;;;;;;4896967;29;20040;-78
2022/02/08 20:44:37;;;;;;;4.45;1.20;;;5.70;99.90;;;;;;4880805;29;20032;-79
2022/02/08 20:47:19;;;;;;;4.55;1.70;;;5.80;99.90;;;;;;4880299;29;20056;-78
2022/02/08 20:49:45;;;;;;;5.55;1.88;;;5.80;99.90;;;;;;4897033;29;20029;-79
2022/02/08 20:52:12;;;;;;;6.07;1.25;;;5.80;99.90;;;;;;4880501;29;20029;-79
2022/02/08 20:54:39;;;;;;;4.03;1.50;;;5.90;99.90;;;;;;4883475;29;20398;-79
2022/02/08 20:57:12;;;;;;;5.65;1.65;;;5.80;99.90;;;;;;4903083;29;20024;-79
2022/02/08 20:59:38;;;;;;;9.00;1.95;;;5.80;99.90;;;;;;4886272;29;20068;-79
2022/02/08 21:02:04;;;;;;;10.52;1.88;;;5.80;99.90;;;;;;4889938;29;20048;-79
2022/02/08 21:04:42;;;;;;;8.80;1.50;;;5.80;99.90;;;;;;4890820;29;20051;-80
2022/02/08 21:07:08;;;;;;;4.57;1.60;;;5.90;99.90;;;;;;4889551;29;20033;-80
2022/02/08 21:09:33;;;;;;;;;;;5.90;99.90;;;;;;4890827;29;20032;-78
2022/02/08 21:12:16;;;;;;;5.35;1.67;;;5.90;99.90;;;;;;4912129;29;19914;-80
2022/02/08 21:14:44;;;;;;;5.78;1.52;;;6.00;99.90;;;;;;4908492;29;20040;-79
2022/02/08 21:17:13;;;;;;;5.07;1.52;;;5.90;99.90;;;;;;4905174;29;20033;-80
2022/02/08 21:19:39;;;;;;;3.97;1.60;;;6.10;99.90;;;;;;4900558;29;20033;-80
2022/02/08 21:22:05;;;;;;;3.83;1.83;;;6.10;99.90;;;;;;4881585;29;20028;-78
2022/02/08 21:24:31;;;;;;;;;;;6.10;99.90;;;;;;4883743;29;20168;-80
2022/02/08 21:27:01;;;;;;;5.68;1.80;;;6.20;99.90;;;;;;4912123;29;19911;-80
2022/02/08 21:52:55;;;;;;;8.73;3.28;;;6.10;99.90;;;;;;4897957;29;20045;-80
2022/02/08 21:55:21;;;;;;;6.20;2.40;;;6.10;99.90;;;;;;4881078;29;20430;-79